Time;durP1;ratioP1;P1;durP2;ratioP2;P2;SDS_P1;SDS_P2;PMS_P1;PMS_P2;Temp;Humidity;BMP_temperature;BMP_pressure;BME280_temperature;BME280_humidity;BME280_pressure;Samples;Min_cycle;Max_cycle;Signal;HPM_P1;HPM_P2
2023/04/28 04:36:54;;;;;;;1.00;0.73;;;5.10;73.90;;;;;;5066860;23;20321;-69
2023/04/28 04:39:19;;;;;;;0.97;0.70;;;5.00;73.70;;;;;;5055481;28;20317;-69
2023/04/28 14:48:17;;;;;;;0.65;0.65;;;24.70;38.80;;;;;;3571143;23;20238;-74
2023/04/28 14:50:43;;;;;;;0.60;0.60;;;25.00;40.20;;;;;;4824984;29;20214;-72
2023/04/28 14:53:09;;;;;;;1.95;0.52;;;25.20;40.10;;;;;;4818859;29;20241;-75
2023/04/28 14:55:34;;;;;;;0.57;0.57;;;25.80;39.40;;;;;;4822245;29;20306;-74
2023/04/28 14:58:00;;;;;;;0.57;0.57;;;26.40;38.80;;;;;;4833326;29;20222;-72
2023/04/28 15:00:26;;;;;;;0.68;0.68;;;26.40;37.60;;;;;;4832686;29;20227;-72
2023/04/28 15:02:51;;;;;;;1.02;1.00;;;25.90;37.80;;;;;;4835274;29;20194;-72
2023/04/28 15:05:18;;;;;;;1.77;0.93;;;25.70;37.90;;;;;;4827031;29;20949;-73
2023/04/28 15:07:43;;;;;;;0.63;0.63;;;25.20;38.30;;;;;;4819832;29;20562;-72
2023/04/28 15:10:09;;;;;;;0.85;0.73;;;24.50;39.60;;;;;;4839201;29;20243;-72
2023/04/28 15:12:35;;;;;;;1.17;0.90;;;24.60;40.40;;;;;;4838795;29;20191;-72
2023/04/28 15:15:01;;;;;;;1.52;0.63;;;24.40;39.20;;;;;;4834915;29;20586;-72
2023/04/28 15:17:27;;;;;;;1.25;0.80;;;24.60;39.60;;;;;;4834989;29;20191;-73
2023/04/28 15:19:53;;;;;;;0.60;0.60;;;24.50;38.80;;;;;;4833712;29;20792;-74
2023/04/28 15:22:18;;;;;;;0.65;0.65;;;24.20;39.30;;;;;;4836145;29;20238;-74
2023/04/28 15:24:44;;;;;;;0.82;0.82;;;24.50;39.60;;;;;;4838183;29;20214;-73
2023/04/28 15:27:10;;;;;;;1.27;1.15;;;24.90;39.20;;;;;;4837483;29;20194;-73
2023/04/28 15:29:36;;;;;;;1.95;0.90;;;24.60;38.80;;;;;;4835538;29;20257;-75
2023/04/28 15:32:01;;;;;;;2.92;0.85;;;23.80;39.70;;;;;;4837995;29;20194;-74
2023/04/28 15:34:27;;;;;;;0.50;0.50;;;23.90;40.40;;;;;;4834797;29;20199;-73
2023/04/28 15:36:53;;;;;;;2.50;0.85;;;23.70;40.00;;;;;;4818149;29;20211;-74
2023/04/28 15:39:19;;;;;;;0.93;0.90;;;23.90;41.00;;;;;;4835061;29;20223;-74
2023/04/28 15:41:44;;;;;;;0.77;0.77;;;24.10;41.00;;;;;;4833202;29;20900;-74
2023/04/28 15:44:10;;;;;;;0.85;0.85;;;24.30;40.00;;;;;;4836361;29;20263;-75
2023/04/28 15:46:36;;;;;;;0.70;0.70;;;24.30;40.60;;;;;;4829943;29;20675;-74
2023/04/28 15:49:03;;;;;;;1.15;0.77;;;24.40;40.20;;;;;;4818028;29;20673;-76
2023/04/28 15:51:28;;;;;;;2.50;1.02;;;24.30;39.40;;;;;;4820765;29;20966;-74
2023/04/28 15:53:55;;;;;;;1.40;1.40;;;23.80;39.70;;;;;;4827429;29;20294;-73
2023/04/28 15:56:25;;;;;;;1.00;0.95;;;23.40;40.70;;;;;;4828068;29;20222;-74
2023/04/28 15:58:51;;;;;;;0.90;0.90;;;22.90;40.90;;;;;;4833603;29;20187;-73
2023/04/28 16:01:17;;;;;;;2.28;0.90;;;22.80;42.00;;;;;;4832113;29;20209;-74
2023/04/28 16:03:42;;;;;;;0.82;0.82;;;22.70;41.80;;;;;;4830440;29;20207;-74
2023/04/28 16:06:08;;;;;;;1.40;0.80;;;22.60;41.60;;;;;;4833002;29;20879;-73
2023/04/28 16:08:34;;;;;;;0.88;0.68;;;22.40;41.90;;;;;;4834064;29;20256;-73
2023/04/28 16:11:02;;;;;;;1.00;0.98;;;22.30;42.30;;;;;;4834334;29;20217;-75
2023/04/28 16:13:31;;;;;;;0.60;0.60;;;22.00;41.50;;;;;;4814691;29;20777;-73
2023/04/28 16:15:57;;;;;;;0.80;0.70;;;20.90;41.90;;;;;;4820089;29;20213;-75
2023/04/28 16:18:23;;;;;;;6.40;0.98;;;20.30;42.60;;;;;;4829535;29;20211;-74
2023/04/28 16:20:50;;;;;;;1.08;0.60;;;20.20;43.90;;;;;;4836353;29;20711;-75
2023/04/28 16:23:15;;;;;;;0.85;0.85;;;20.10;44.40;;;;;;4831144;29;20191;-77
2023/04/28 16:25:41;;;;;;;0.90;0.80;;;19.60;43.70;;;;;;4833915;29;20252;-76
2023/04/28 16:28:07;;;;;;;0.68;0.68;;;19.10;43.90;;;;;;4832500;29;20191;-74
2023/04/28 16:30:32;;;;;;;1.75;0.85;;;18.70;44.30;;;;;;4836684;29;20191;-75
2023/04/28 16:32:58;;;;;;;1.05;0.82;;;18.40;44.40;;;;;;4816441;29;20187;-75
2023/04/28 16:35:24;;;;;;;0.90;0.90;;;17.90;45.50;;;;;;4826971;29;20280;-76
2023/04/28 16:37:50;;;;;;;0.70;0.70;;;17.40;45.60;;;;;;4823524;29;20608;-76
2023/04/28 16:40:16;;;;;;;0.90;0.90;;;17.40;46.40;;;;;;4831107;29;20219;-75
2023/04/28 16:42:45;;;;;;;0.75;0.65;;;17.40;46.70;;;;;;4831594;29;20218;-75
2023/04/28 16:45:11;;;;;;;2.38;0.60;;;17.50;46.60;;;;;;4820002;29;20182;-76
2023/04/28 16:47:41;;;;;;;0.77;0.73;;;17.60;46.70;;;;;;4834039;29;20199;-75
2023/04/28 16:50:11;;;;;;;2.15;0.50;;;17.60;47.00;;;;;;4837644;29;20274;-75
2023/04/28 16:52:37;;;;;;;1.85;0.90;;;17.60;47.30;;;;;;4839759;29;20587;-75
2023/04/28 16:55:03;;;;;;;0.82;0.82;;;17.60;47.00;;;;;;4835666;29;20217;-75
2023/04/28 16:57:29;;;;;;;0.80;0.80;;;17.60;46.90;;;;;;4834895;29;20211;-73
2023/04/28 16:59:55;;;;;;;2.47;0.82;;;17.30;47.10;;;;;;4831378;29;20227;-75
2023/04/28 17:02:21;;;;;;;1.23;0.93;;;17.10;47.00;;;;;;4840382;29;20187;-75
2023/04/28 17:04:46;;;;;;;1.55;0.98;;;16.90;47.50;;;;;;4824599;29;20191;-75
2023/04/28 17:07:12;;;;;;;1.77;0.80;;;16.80;47.90;;;;;;4815046;29;20214;-75
2023/04/28 17:09:38;;;;;;;1.95;0.98;;;16.60;48.20;;;;;;4839091;29;20220;-75
2023/04/28 17:12:04;;;;;;;0.63;0.63;;;16.40;47.50;;;;;;4833858;29;20256;-76
2023/04/28 17:14:29;;;;;;;1.63;0.80;;;16.10;48.20;;;;;;4840977;29;20191;-75
2023/04/28 17:16:55;;;;;;;0.82;0.82;;;16.00;49.10;;;;;;4832824;29;20805;-75
2023/04/28 17:19:21;;;;;;;0.80;0.80;;;15.80;48.40;;;;;;4829067;29;20235;-74
2023/04/28 17:21:48;;;;;;;1.77;0.98;;;15.50;49.20;;;;;;4837695;29;20715;-74
2023/04/28 17:24:14;;;;;;;0.68;0.68;;;15.30;49.20;;;;;;4829717;29;20246;-78
2023/04/28 17:26:40;;;;;;;1.15;1.05;;;15.30;49.60;;;;;;4813528;29;20679;-76
2023/04/28 17:29:06;;;;;;;1.38;1.15;;;15.30;49.80;;;;;;4830454;29;20219;-76
2023/04/28 17:31:32;;;;;;;4.50;1.25;;;15.00;49.80;;;;;;4811075;29;20705;-75
2023/04/28 17:33:58;;;;;;;2.42;1.33;;;14.90;50.70;;;;;;4828844;29;20263;-75
2023/04/28 17:36:27;;;;;;;1.83;1.63;;;14.80;50.40;;;;;;4809786;29;20218;-77
2023/04/28 17:38:54;;;;;;;1.67;1.20;;;14.60;50.80;;;;;;4824606;29;20298;-77
2023/04/28 17:41:20;;;;;;;0.88;0.88;;;14.40;50.80;;;;;;4827983;29;20261;-77
2023/04/28 17:43:46;;;;;;;1.50;1.35;;;14.30;51.20;;;;;;4828023;29;20926;-77
2023/04/28 17:46:13;;;;;;;4.75;1.88;;;14.20;51.40;;;;;;4816974;29;20295;-75
2023/04/28 17:48:39;;;;;;;1.85;1.70;;;14.10;51.40;;;;;;4835968;29;20198;-76
2023/04/28 17:51:05;;;;;;;4.07;1.50;;;14.00;51.50;;;;;;4838118;29;21003;-74
2023/04/28 17:53:30;;;;;;;2.05;1.95;;;14.00;51.50;;;;;;4837316;29;20202;-74
2023/04/28 17:55:56;;;;;;;1.70;1.65;;;13.90;51.80;;;;;;4836479;29;20191;-73
2023/04/28 17:58:22;;;;;;;1.85;1.60;;;13.80;52.00;;;;;;4840544;29;20576;-76
2023/04/28 18:00:48;;;;;;;1.35;1.33;;;13.70;52.30;;;;;;4834728;29;20223;-76
2023/04/28 18:03:13;;;;;;;1.42;1.42;;;13.60;52.60;;;;;;4837486;29;20193;-76
2023/04/28 18:05:39;;;;;;;1.52;1.42;;;13.70;52.70;;;;;;4840408;29;20186;-79
2023/04/28 18:08:06;;;;;;;1.48;1.48;;;13.60;52.90;;;;;;4841192;29;20194;-76
2023/04/28 18:10:33;;;;;;;3.00;1.13;;;13.70;52.80;;;;;;4840404;29;20661;-74
2023/04/28 18:12:58;;;;;;;1.80;1.60;;;13.60;53.30;;;;;;4822348;29;20194;-75
2023/04/28 18:15:25;;;;;;;5.20;2.53;;;13.80;54.10;;;;;;4837749;29;20266;-75
2023/04/28 18:17:51;;;;;;;2.08;1.95;;;13.90;54.70;;;;;;4837192;29;20198;-74
2023/04/28 18:20:17;;;;;;;2.25;2.00;;;13.90;55.70;;;;;;4819029;29;20226;-73
2023/04/28 18:22:43;;;;;;;1.75;1.65;;;13.90;56.50;;;;;;4837966;29;20183;-74
2023/04/28 18:25:10;;;;;;;1.40;1.40;;;13.80;56.50;;;;;;4835766;29;20183;-73
2023/04/28 18:27:35;;;;;;;1.65;1.55;;;13.80;56.50;;;;;;4823024;29;20187;-73
2023/04/28 18:30:01;;;;;;;3.63;1.20;;;13.80;56.90;;;;;;4821477;29;20276;-74
2023/04/28 18:32:32;;;;;;;1.65;1.63;;;13.80;57.60;;;;;;4839085;29;20249;-75
2023/04/28 18:34:58;;;;;;;2.88;1.42;;;13.70;57.80;;;;;;4816871;29;20225;-75
2023/04/28 18:37:23;;;;;;;1.98;1.52;;;13.60;58.40;;;;;;4819580;29;20207;-73
2023/04/28 18:39:55;;;;;;;1.58;1.38;;;13.60;58.90;;;;;;4834368;29;20219;-73
2023/04/28 18:42:20;;;;;;;2.70;1.65;;;13.60;59.10;;;;;;4817694;29;20199;-73
2023/04/28 18:44:46;;;;;;;1.58;1.30;;;13.50;59.40;;;;;;4833910;29;20198;-73
2023/04/28 18:47:12;;;;;;;1.40;1.40;;;13.40;59.60;;;;;;4821693;29;20270;-73
2023/04/28 18:49:38;;;;;;;1.75;1.65;;;13.40;59.90;;;;;;4830981;29;20684;-73
2023/04/28 18:52:04;;;;;;;3.30;1.17;;;13.30;60.20;;;;;;4818834;29;20218;-73
2023/04/28 18:54:29;;;;;;;1.23;1.13;;;13.30;60.40;;;;;;4832686;29;20207;-72
2023/04/28 18:56:56;;;;;;;1.35;1.33;;;13.20;60.40;;;;;;4821408;29;20238;-73
2023/04/28 18:59:22;;;;;;;5.07;1.50;;;13.20;60.50;;;;;;4818262;29;20219;-73
2023/04/28 19:01:47;;;;;;;2.58;1.38;;;13.20;60.70;;;;;;4822289;29;20592;-73
2023/04/28 19:04:13;;;;;;;2.13;1.60;;;13.10;60.80;;;;;;4833459;29;20187;-72
2023/04/28 19:06:39;;;;;;;1.80;1.30;;;13.10;61.00;;;;;;4833517;29;20656;-73
2023/04/28 19:09:06;;;;;;;1.73;1.55;;;13.10;61.70;;;;;;4817005;29;20187;-73
2023/04/28 19:11:31;;;;;;;1.85;1.42;;;13.00;62.40;;;;;;4813864;29;20213;-73
2023/04/28 19:13:57;;;;;;;1.98;1.77;;;13.00;62.80;;;;;;4836084;29;20669;-73
2023/04/28 19:16:26;;;;;;;1.83;1.58;;;13.00;62.40;;;;;;4819597;29;20191;-74
2023/04/28 19:18:51;;;;;;;1.17;1.17;;;12.90;62.40;;;;;;4820938;29;20191;-73
2023/04/28 19:21:17;;;;;;;2.22;2.03;;;12.90;62.50;;;;;;4831642;29;20203;-73
2023/04/28 19:23:43;;;;;;;3.25;2.17;;;12.80;62.50;;;;;;4824032;29;20195;-72
2023/04/28 19:26:10;;;;;;;1.88;1.77;;;12.80;62.50;;;;;;4819020;29;20211;-74
2023/04/28 19:28:35;;;;;;;3.63;2.00;;;12.70;62.50;;;;;;4836424;29;20199;-72
2023/04/28 19:31:01;;;;;;;2.05;1.95;;;12.70;62.70;;;;;;4832515;29;20219;-74
2023/04/28 19:33:27;;;;;;;2.03;1.92;;;12.60;62.90;;;;;;4834338;29;20199;-72
2023/04/28 19:35:56;;;;;;;4.25;2.15;;;12.50;63.20;;;;;;4829545;29;20194;-74
2023/04/28 19:38:22;;;;;;;2.33;1.98;;;12.40;63.60;;;;;;4832095;29;20220;-71
2023/04/28 19:40:49;;;;;;;4.28;1.92;;;12.30;63.80;;;;;;4829571;29;20219;-74
2023/04/28 19:43:16;;;;;;;1.80;1.70;;;12.20;63.90;;;;;;4813892;29;20217;-71
2023/04/28 19:45:42;;;;;;;1.70;1.70;;;12.10;63.60;;;;;;4813165;29;20271;-72
